HKD weather

Hakodate Airport
Hakodate, Hokkaidō Prefecture, Japan

Public forecast

Using degrees Celsius for public forecast. Weather courtesy of forecast.io.

Current aviation weather report (METAR) for Hakodate Airport

Retrieved 2019/10/14 11:00 UTC (1 hour ago):

RJCH 141100Z 34005KT 9999 FEW025 SCT040 12/09 Q1018

Aviation forecast (TAF) for Hakodate Airport

Retrieved 2019/10/14 12:30 UTC (0 seconds ago):

TAF RJCH 141113Z 1412/1518 36010KT 9999 FEW015 BKN025